createdAt,value
2017-10-03T00:00:42.784Z,98.33
2017-10-03T00:01:42.777Z,98.38
2017-10-03T00:02:42.772Z,98.57
2017-10-03T00:03:42.765Z,98.33
2017-10-03T00:04:42.761Z,98.57
2017-10-03T00:05:42.754Z,98.71
2017-10-03T00:06:42.767Z,98.52
2017-10-03T00:07:42.742Z,98.61
2017-10-03T00:08:42.737Z,98.33
2017-10-03T00:09:42.728Z,98.61
2017-10-03T00:10:42.722Z,98.61
2017-10-03T00:11:42.714Z,98.52
2017-10-03T00:12:42.709Z,98.24
2017-10-03T00:13:42.705Z,98.24
2017-10-03T00:14:42.696Z,98.33
2017-10-03T00:15:42.688Z,98.24
2017-10-03T00:16:42.689Z,98.33
2017-10-03T00:17:42.678Z,98.43
2017-10-03T00:18:42.352Z,98.43
2017-10-03T00:19:42.665Z,98.43
2017-10-03T00:20:42.662Z,98.43
2017-10-03T00:21:42.333Z,98.14
2017-10-03T00:22:42.648Z,98.61
2017-10-03T00:23:42.641Z,98.24
2017-10-03T00:24:42.635Z,98.81
2017-10-03T00:25:42.644Z,98.33
2017-10-03T00:26:42.620Z,98.71
2017-10-03T00:27:42.617Z,98.9
2017-10-03T00:28:42.607Z,98.81
2017-10-03T00:29:42.603Z,98.81
2017-10-03T00:30:42.595Z,98.81
2017-10-03T00:31:42.591Z,98.9
2017-10-03T00:32:42.584Z,98.61
2017-10-03T00:33:42.259Z,98.81
2017-10-03T00:34:42.251Z,98.71
2017-10-03T00:35:42.567Z,98.75
2017-10-03T00:36:42.560Z,98.57
2017-10-03T00:37:42.555Z,98.28
2017-10-03T00:38:42.548Z,98.66
2017-10-03T00:39:42.641Z,98.28
2017-10-03T00:40:42.536Z,98.47
2017-10-03T00:41:42.529Z,98.38
2017-10-03T00:42:42.521Z,98.66
2017-10-03T00:43:42.513Z,98.57
2017-10-03T00:44:42.510Z,98.47
2017-10-03T00:45:42.499Z,98.38
2017-10-03T00:46:42.495Z,98.71
2017-10-03T00:47:42.488Z,98.95
2017-10-03T00:48:42.481Z,98.85
2017-10-03T00:49:42.473Z,98.85
2017-10-03T00:50:42.467Z,98.85
2017-10-03T00:51:42.461Z,98.85
2017-10-03T00:52:42.456Z,98.66
2017-10-03T00:53:42.450Z,98.95
2017-10-03T00:54:42.440Z,98.85
2017-10-03T00:55:42.438Z,99.09
2017-10-03T00:56:42.430Z,99.04
2017-10-03T00:57:42.102Z,99.09
2017-10-03T00:58:42.417Z,98.8
2017-10-03T00:59:42.410Z,98.61
2017-10-03T01:00:42.084Z,98.9
2017-10-03T01:01:42.398Z,98.52
2017-10-03T01:02:42.390Z,98.61
2017-10-03T01:03:42.386Z,98.8
2017-10-03T01:04:42.057Z,98.33
2017-10-03T01:05:42.367Z,98.13
2017-10-03T01:06:42.361Z,98.33
2017-10-03T01:07:42.355Z,98.13
2017-10-03T01:08:42.351Z,98.13
2017-10-03T01:09:42.344Z,98.33
2017-10-03T01:10:42.336Z,98.13
2017-10-03T01:11:42.328Z,98.23
2017-10-03T01:12:42.323Z,98.33
2017-10-03T01:13:42.325Z,98.04
2017-10-03T01:14:42.308Z,98.99
2017-10-03T01:15:42.302Z,98.52
2017-10-03T01:16:42.298Z,98.52
2017-10-03T01:17:42.291Z,98.9
2017-10-03T01:18:42.283Z,98.71
2017-10-03T01:19:42.279Z,98.42
2017-10-03T01:20:42.271Z,98.9
2017-10-03T01:21:42.266Z,98.8
2017-10-03T01:22:42.274Z,98.9
2017-10-03T01:23:42.250Z,97.94
2017-10-03T01:24:42.242Z,98.52
2017-10-03T01:25:42.233Z,98.52
2017-10-03T01:26:42.231Z,98.33
2017-10-03T01:27:42.222Z,98.33
2017-10-03T01:28:42.217Z,98.23
2017-10-03T01:29:42.207Z,98.52
2017-10-03T01:30:42.201Z,98.23
2017-10-03T01:31:42.193Z,98.13
2017-10-03T01:32:41.869Z,98.52
2017-10-03T01:33:42.182Z,98.42
2017-10-03T01:34:42.175Z,98.52
2017-10-03T01:35:41.849Z,98.71
2017-10-03T01:36:42.162Z,98.52
2017-10-03T01:37:42.158Z,98.52
2017-10-03T01:38:42.146Z,98.52
2017-10-03T01:39:42.139Z,98.33
2017-10-03T01:40:42.137Z,98.42
2017-10-03T01:41:41.810Z,98.52
2017-10-03T01:42:42.125Z,98.52
2017-10-03T01:43:42.113Z,98.42
2017-10-03T01:44:42.106Z,98.42
2017-10-03T01:45:42.100Z,98.33
2017-10-03T01:46:42.097Z,98.52
2017-10-03T01:47:42.087Z,98.42
2017-10-03T01:48:42.082Z,98.52
2017-10-03T01:49:42.075Z,98.42
2017-10-03T01:50:42.070Z,98.33
2017-10-03T01:51:42.063Z,98.42
2017-10-03T01:52:41.735Z,98.13
2017-10-03T01:53:42.045Z,98.52
2017-10-03T01:54:41.720Z,98.8
2017-10-03T01:55:41.715Z,98.75
2017-10-03T01:56:42.027Z,98.57
2017-10-03T01:57:42.020Z,98.28
2017-10-03T01:58:42.012Z,98.52
2017-10-03T01:59:42.005Z,98.33
2017-10-03T02:00:41.679Z,98.33
2017-10-03T02:01:41.990Z,98.47
2017-10-03T02:02:41.987Z,98.47
2017-10-03T02:03:41.659Z,98.47
2017-10-03T02:04:41.973Z,98.47
2017-10-03T02:05:41.966Z,98.47
2017-10-03T02:06:41.958Z,98.47
2017-10-03T02:07:41.951Z,98.66
2017-10-03T02:08:41.944Z,99.04
2017-10-03T02:09:41.937Z,98.47
2017-10-03T02:10:41.929Z,98.37
2017-10-03T02:11:41.922Z,98.66
2017-10-03T02:12:41.913Z,98.85
2017-10-03T02:13:41.908Z,98.47
2017-10-03T02:14:41.904Z,98.66
2017-10-03T02:15:41.897Z,98.66
2017-10-03T02:16:41.884Z,98.47
2017-10-03T02:17:41.881Z,98.66
2017-10-03T02:18:41.554Z,99.33
2017-10-03T02:19:41.866Z,98.66
2017-10-03T02:20:41.865Z,98.57
2017-10-03T02:21:41.850Z,99.33
2017-10-03T02:22:41.844Z,99.23
2017-10-03T02:23:41.834Z,99.23
2017-10-03T02:24:41.831Z,99.33
2017-10-03T02:25:41.827Z,99.33
2017-10-03T02:26:41.816Z,98.57
2017-10-03T02:27:41.808Z,99.23
2017-10-03T02:28:41.805Z,99.52
2017-10-03T02:29:41.799Z,99.23
2017-10-03T02:30:41.794Z,99.04
2017-10-03T02:31:41.779Z,99.33
2017-10-03T02:32:41.781Z,99.43
2017-10-03T02:33:41.785Z,99.43
2017-10-03T02:34:41.442Z,99.23
2017-10-03T02:35:41.753Z,99.23
2017-10-03T02:36:41.751Z,99.23
2017-10-03T02:37:41.743Z,98.66
2017-10-03T02:38:41.734Z,98.57
2017-10-03T02:39:41.726Z,98.57
2017-10-03T02:40:41.720Z,99.43
2017-10-03T02:41:41.712Z,99.23
2017-10-03T02:42:41.704Z,99.43
2017-10-03T02:43:41.700Z,99.43
2017-10-03T02:44:41.693Z,99.43
2017-10-03T02:45:41.685Z,99.14
2017-10-03T02:46:41.678Z,99.04
2017-10-03T02:47:41.668Z,98.94
2017-10-03T02:48:41.660Z,99.08
2017-10-03T02:49:41.652Z,99.14
2017-10-03T02:50:41.649Z,99.18
2017-10-03T02:51:41.641Z,99.04
2017-10-03T02:52:41.630Z,98.94
2017-10-03T02:53:41.627Z,99.14
2017-10-03T02:54:41.621Z,99.18
2017-10-03T02:55:41.613Z,99.04
2017-10-03T02:56:41.605Z,99.14
2017-10-03T02:57:41.596Z,99.04
2017-10-03T02:58:41.587Z,99.28
2017-10-03T02:59:41.581Z,99.08
2017-10-03T03:00:41.574Z,99.08
2017-10-03T03:01:41.565Z,99.08
2017-10-03T03:02:41.562Z,99.04
2017-10-03T03:03:41.235Z,99.08
2017-10-03T03:04:41.546Z,99.18
2017-10-03T03:05:41.221Z,99.18
2017-10-03T03:06:41.534Z,98.99
2017-10-03T03:07:41.524Z,98.9
2017-10-03T03:08:41.197Z,99.08
2017-10-03T03:09:41.506Z,99.08
2017-10-03T03:10:41.504Z,98.9
2017-10-03T03:11:41.500Z,98.99
2017-10-03T03:12:41.488Z,99.08
2017-10-03T03:13:41.486Z,99.08
2017-10-03T03:14:41.473Z,99.18
2017-10-03T03:15:41.465Z,99.08
2017-10-03T03:16:41.460Z,99.08
2017-10-03T03:17:41.452Z,99.08
2017-10-03T03:18:41.444Z,98.9
2017-10-03T03:19:41.435Z,98.99
2017-10-03T03:20:41.429Z,98.9
2017-10-03T03:21:41.423Z,99.08
2017-10-03T03:22:41.413Z,98.9
2017-10-03T03:23:41.406Z,99.08
2017-10-03T03:24:41.400Z,98.9
2017-10-03T03:25:41.074Z,98.9
2017-10-03T03:26:41.067Z,99.08
2017-10-03T03:27:41.378Z,98.99
2017-10-03T03:28:41.374Z,99.08
2017-10-03T03:29:41.364Z,99.08
2017-10-03T03:30:41.364Z,98.9
2017-10-03T03:31:41.347Z,98.9
2017-10-03T03:32:41.344Z,99.08
2017-10-03T03:33:41.338Z,99.08
2017-10-03T03:34:41.330Z,98.99
2017-10-03T03:35:41.322Z,99.08
2017-10-03T03:36:41.315Z,98.9
2017-10-03T03:37:41.304Z,98.9
2017-10-03T03:38:41.300Z,98.99
2017-10-03T03:39:41.291Z,99.08
2017-10-03T03:40:41.285Z,98.99
2017-10-03T03:41:41.282Z,98.99
2017-10-03T03:42:40.950Z,99.08
2017-10-03T03:43:41.264Z,98.99
2017-10-03T03:44:41.254Z,98.99
2017-10-03T03:45:41.244Z,98.99
2017-10-03T03:46:40.920Z,98.9
2017-10-03T03:47:41.229Z,99.08
2017-10-03T03:48:41.224Z,98.9
2017-10-03T03:49:41.216Z,99.08
2017-10-03T03:50:41.211Z,98.9
2017-10-03T03:51:41.200Z,99.08
2017-10-03T03:52:41.199Z,99.08
2017-10-03T03:53:41.191Z,99.08
2017-10-03T03:54:41.179Z,99.08
2017-10-03T03:55:41.175Z,99.08
2017-10-03T03:56:41.165Z,99.08
2017-10-03T03:57:41.159Z,99.14
2017-10-03T03:58:41.152Z,99.08
2017-10-03T03:59:40.825Z,99.08
2017-10-03T04:00:40.818Z,98.99
2017-10-03T04:01:40.811Z,99.08
2017-10-03T04:02:41.121Z,99.08
2017-10-03T04:03:41.116Z,99.08
2017-10-03T04:04:41.107Z,98.85
2017-10-03T04:05:41.097Z,99.37
2017-10-03T04:06:41.090Z,98.99
2017-10-03T04:07:41.084Z,99.08
2017-10-03T04:08:41.082Z,99.14
2017-10-03T04:09:41.073Z,99.23
2017-10-03T04:10:40.743Z,99.18
2017-10-03T04:11:40.736Z,99.18
2017-10-03T04:12:41.047Z,99.28
2017-10-03T04:13:41.043Z,98.8
2017-10-03T04:14:41.033Z,99.18
2017-10-03T04:15:41.028Z,99.18
2017-10-03T04:16:41.018Z,99.47
2017-10-03T04:17:41.010Z,99.08
2017-10-03T04:18:41.005Z,99.18
2017-10-03T04:19:41.009Z,99.37
2017-10-03T04:20:40.996Z,99.47
2017-10-03T04:21:40.985Z,99.08
2017-10-03T04:22:40.656Z,99.18
2017-10-03T04:23:40.968Z,99.08
2017-10-03T04:24:40.965Z,99.18
2017-10-03T04:25:40.954Z,98.9
2017-10-03T04:26:40.947Z,99.18
2017-10-03T04:27:40.941Z,98.99
2017-10-03T04:28:40.933Z,99.28
2017-10-03T04:29:40.925Z,99.08
2017-10-03T04:30:40.920Z,98.9
2017-10-03T04:31:40.910Z,99.08
2017-10-03T04:32:40.901Z,99.08
2017-10-03T04:33:40.893Z,99.18
2017-10-03T04:34:40.891Z,98.99
2017-10-03T04:35:40.880Z,98.9
2017-10-03T04:36:40.870Z,99.08
2017-10-03T04:37:40.863Z,99.28
2017-10-03T04:38:40.860Z,99.08
2017-10-03T04:39:40.847Z,99.08
2017-10-03T04:40:40.838Z,99.28
2017-10-03T04:41:40.837Z,99.18
2017-10-03T04:42:40.826Z,99.08
2017-10-03T04:43:40.817Z,99.28
2017-10-03T04:44:40.810Z,99.08
2017-10-03T04:45:40.806Z,99.08
2017-10-03T04:46:40.797Z,99.18
2017-10-03T04:47:40.796Z,99.08
2017-10-03T04:48:40.784Z,99.08
2017-10-03T04:49:40.778Z,99.08
2017-10-03T04:50:40.766Z,99.08
2017-10-03T04:51:40.762Z,98.9
2017-10-03T04:52:40.761Z,99.08
2017-10-03T04:53:40.743Z,98.9
2017-10-03T04:54:40.739Z,98.9
2017-10-03T04:55:40.732Z,98.9
2017-10-03T04:56:40.722Z,99.28
2017-10-03T04:57:40.715Z,99.08
2017-10-03T04:58:40.707Z,98.9
2017-10-03T04:59:40.700Z,98.9
2017-10-03T05:00:40.693Z,99.18
2017-10-03T05:01:40.685Z,99.08
2017-10-03T05:02:40.680Z,99.08
2017-10-03T05:03:40.675Z,98.9
2017-10-03T05:04:40.661Z,98.99
2017-10-03T05:05:40.654Z,99.08
2017-10-03T05:06:40.650Z,99.08
2017-10-03T05:07:40.323Z,99.04
2017-10-03T05:08:40.634Z,99.28
2017-10-03T05:09:40.627Z,99.18
2017-10-03T05:10:40.619Z,99.37
2017-10-03T05:11:40.610Z,99.18
2017-10-03T05:12:40.285Z,99.37
2017-10-03T05:13:40.595Z,99.33
2017-10-03T05:14:40.592Z,99.14
2017-10-03T05:15:40.582Z,99.37
2017-10-03T05:16:40.576Z,99.18
2017-10-03T05:17:40.569Z,98.52
2017-10-03T05:18:40.563Z,98.8
2017-10-03T05:19:40.552Z,98.85
2017-10-03T05:20:40.547Z,98.75
2017-10-03T05:21:40.539Z,98.94
2017-10-03T05:22:40.532Z,98.94
2017-10-03T05:23:40.526Z,98.9
2017-10-03T05:24:40.515Z,98.52
2017-10-03T05:25:40.543Z,98.9
2017-10-03T05:26:40.506Z,98.9
2017-10-03T05:27:40.494Z,98.61
2017-10-03T05:28:40.488Z,98.99
2017-10-03T05:29:40.478Z,99.52
2017-10-03T05:30:40.473Z,99.08
2017-10-03T05:31:40.150Z,99.43
2017-10-03T05:32:40.456Z,99.47
2017-10-03T05:33:40.451Z,99.18
2017-10-03T05:34:40.443Z,99.37
2017-10-03T05:35:40.117Z,99.37
2017-10-03T05:36:40.429Z,99.08
2017-10-03T05:37:40.428Z,99.14
2017-10-03T05:38:40.415Z,99.04
2017-10-03T05:39:40.409Z,99.14
2017-10-03T05:40:40.402Z,99.43
2017-10-03T05:41:40.395Z,99.14
2017-10-03T05:42:40.386Z,99.33
2017-10-03T05:43:40.381Z,98.57
2017-10-03T05:44:40.373Z,98.94
2017-10-03T05:45:40.362Z,98.75
2017-10-03T05:46:40.359Z,98.57
2017-10-03T05:47:40.352Z,98.57
2017-10-03T05:48:40.345Z,98.85
2017-10-03T05:49:40.336Z,98.66
2017-10-03T05:50:40.328Z,98.28
2017-10-03T05:51:40.327Z,98.57
2017-10-03T05:52:40.318Z,98.75
2017-10-03T05:53:40.307Z,98.37
2017-10-03T05:54:40.300Z,98.42
2017-10-03T05:55:40.297Z,98.42
2017-10-03T05:56:39.967Z,98.33
2017-10-03T05:57:40.279Z,98.61
2017-10-03T05:58:39.954Z,98.61
2017-10-03T05:59:39.947Z,98.61
2017-10-03T06:00:40.258Z,98.61
2017-10-03T06:01:39.936Z,98.52
2017-10-03T06:02:40.245Z,98.71
2017-10-03T06:03:40.236Z,98.71
2017-10-03T06:04:40.233Z,98.61
2017-10-03T06:05:40.223Z,98.52
2017-10-03T06:06:40.318Z,98.71
2017-10-03T06:07:40.211Z,99.04
2017-10-03T06:08:40.205Z,99.04
2017-10-03T06:09:40.209Z,98.18
2017-10-03T06:10:40.190Z,98.23
2017-10-03T06:11:40.186Z,98.47
2017-10-03T06:12:40.179Z,98.47
2017-10-03T06:13:40.171Z,98.47
2017-10-03T06:14:40.167Z,98.47
2017-10-03T06:15:40.161Z,97.99
2017-10-03T06:16:40.154Z,98.28
2017-10-03T06:17:40.148Z,98.28
2017-10-03T06:18:40.140Z,98.09
2017-10-03T06:19:40.134Z,97.99
2017-10-03T06:20:40.128Z,98.47
2017-10-03T06:21:40.128Z,97.99
2017-10-03T06:22:40.113Z,98.38
2017-10-03T06:23:40.108Z,97.9
2017-10-03T06:24:39.783Z,98.18
2017-10-03T06:25:40.094Z,98.09
2017-10-03T06:26:40.089Z,97.99
2017-10-03T06:27:39.763Z,97.71
2017-10-03T06:28:40.077Z,98.18
2017-10-03T06:29:39.753Z,97.8
2017-10-03T06:30:40.069Z,98.09
2017-10-03T06:31:40.056Z,97.8
2017-10-03T06:32:40.084Z,97.61
2017-10-03T06:33:40.045Z,97.71
2017-10-03T06:34:40.040Z,97.8
2017-10-03T06:35:40.034Z,98.09
2017-10-03T06:36:40.028Z,97.8
2017-10-03T06:37:40.125Z,97.9
2017-10-03T06:38:40.016Z,97.85
2017-10-03T06:39:40.014Z,97.56
2017-10-03T06:40:40.001Z,97.75
2017-10-03T06:41:40.001Z,97.85
2017-10-03T06:42:39.993Z,97.75
2017-10-03T06:43:39.667Z,97.75
2017-10-03T06:44:39.977Z,97.95
2017-10-03T06:45:39.970Z,96.89
2017-10-03T06:46:39.967Z,97.18
2017-10-03T06:47:39.970Z,96.99
2017-10-03T06:48:39.955Z,97.28
2017-10-03T06:49:39.949Z,97.18
2017-10-03T06:50:39.943Z,97.37
2017-10-03T06:51:39.938Z,97.47
2017-10-03T06:52:39.928Z,97.47
2017-10-03T06:53:39.603Z,97.56
2017-10-03T06:54:39.917Z,97.37
2017-10-03T06:55:39.913Z,97.37
2017-10-03T06:56:39.907Z,97.56
2017-10-03T06:57:39.899Z,97.75
2017-10-03T06:58:39.893Z,97.37
2017-10-03T06:59:39.887Z,97.66
2017-10-03T07:00:39.881Z,97.47
2017-10-03T07:01:39.872Z,97.47
2017-10-03T07:02:39.871Z,97.56
2017-10-03T07:03:39.862Z,97.56
2017-10-03T07:04:39.861Z,97.08
2017-10-03T07:05:39.854Z,97.75
2017-10-03T07:06:39.847Z,97.08
2017-10-03T07:07:39.840Z,97.66
2017-10-03T07:08:39.836Z,97.75
2017-10-03T07:09:39.826Z,97.47
2017-10-03T07:10:39.823Z,97.08
2017-10-03T07:11:39.819Z,97.18
2017-10-03T07:12:39.809Z,97.47
2017-10-03T07:13:39.802Z,97.47
2017-10-03T07:14:39.800Z,97.47
2017-10-03T07:15:39.796Z,97.28
2017-10-03T07:16:39.788Z,97.56
2017-10-03T07:17:39.781Z,97.52
2017-10-03T07:18:39.775Z,97.52
2017-10-03T07:19:39.768Z,97.52
2017-10-03T07:20:39.767Z,97.71
2017-10-03T07:21:39.755Z,97.71
2017-10-03T07:22:39.434Z,96.66
2017-10-03T07:23:39.752Z,96.7
2017-10-03T07:24:39.742Z,96.75
2017-10-03T07:25:39.420Z,96.42
2017-10-03T07:26:39.730Z,96.7
2017-10-03T07:27:39.728Z,96.99
2017-10-03T07:28:39.722Z,96.99
2017-10-03T07:29:39.714Z,96.27
2017-10-03T07:30:39.392Z,96.47
2017-10-03T07:31:39.708Z,95.12
2017-10-03T07:32:39.380Z,94.98
2017-10-03T07:33:39.700Z,95.36
2017-10-03T07:34:39.690Z,95.46
2017-10-03T07:35:39.368Z,95.36
2017-10-03T07:36:39.685Z,95.46
2017-10-03T07:37:39.683Z,94.98
2017-10-03T07:38:39.674Z,95.12
2017-10-03T07:39:39.349Z,95.31
2017-10-03T07:40:39.666Z,95.21
2017-10-03T07:41:39.664Z,94.74
2017-10-03T07:42:39.657Z,94.17
2017-10-03T07:43:39.654Z,94.74
2017-10-03T07:44:39.649Z,93.78
2017-10-03T07:45:39.646Z,94.35
2017-10-03T07:46:39.641Z,94.74
2017-10-03T07:47:39.635Z,94.89
2017-10-03T07:48:39.630Z,94.59
2017-10-03T07:49:39.632Z,94.5
2017-10-03T07:50:39.620Z,93.93
2017-10-03T07:51:39.617Z,94.69
2017-10-03T07:52:39.613Z,95.46
2017-10-03T07:53:39.611Z,95.17
2017-10-03T07:54:39.287Z,95.46
2017-10-03T07:55:39.604Z,95.17
2017-10-03T07:56:39.279Z,95.26
2017-10-03T07:57:39.274Z,95.26
2017-10-03T07:58:39.270Z,94.84
2017-10-03T07:59:39.591Z,94.64
2017-10-03T08:00:39.263Z,94.79
2017-10-03T08:01:39.586Z,94.17
2017-10-03T08:02:39.259Z,95.07
2017-10-03T08:03:39.571Z,95.41
2017-10-03T08:04:39.569Z,95.41
2017-10-03T08:05:39.244Z,95.51
2017-10-03T08:06:39.555Z,95.21
2017-10-03T08:07:39.233Z,94.64
2017-10-03T08:08:39.230Z,94.74
2017-10-03T08:09:39.542Z,94.64
2017-10-03T08:10:39.541Z,94.45
2017-10-03T08:11:39.537Z,94.74
2017-10-03T08:12:39.538Z,94.35
2017-10-03T08:13:39.530Z,94.12
2017-10-03T08:14:39.523Z,93.63
2017-10-03T08:15:39.521Z,94.69
2017-10-03T08:16:39.517Z,94.49
2017-10-03T08:17:39.519Z,94.4
2017-10-03T08:18:39.506Z,94.59
2017-10-03T08:19:39.507Z,94.02
2017-10-03T08:20:39.503Z,93.77
2017-10-03T08:21:39.180Z,93.97
2017-10-03T08:22:39.494Z,93.59
2017-10-03T08:23:39.171Z,93.3
2017-10-03T08:24:39.168Z,92.82
2017-10-03T08:25:39.481Z,93.15
2017-10-03T08:26:39.480Z,91.66
2017-10-03T08:27:39.160Z,92.63
2017-10-03T08:28:39.475Z,92.63
2017-10-03T08:29:39.468Z,93.2
2017-10-03T08:30:39.467Z,93.39
2017-10-03T08:31:39.463Z,93.68
2017-10-03T08:32:39.460Z,92.91
2017-10-03T08:33:39.138Z,92.82
2017-10-03T08:34:39.451Z,92.91
2017-10-03T08:35:39.449Z,92.82
2017-10-03T08:36:39.127Z,92.86
2017-10-03T08:37:39.122Z,93.15
2017-10-03T08:38:39.443Z,92.1
2017-10-03T08:39:39.117Z,92
2017-10-03T08:40:39.111Z,92.57
2017-10-03T08:41:39.109Z,92.24
2017-10-03T08:42:39.106Z,91.85
2017-10-03T08:43:39.102Z,92.91
2017-10-03T08:44:39.099Z,91.66
2017-10-03T08:45:39.414Z,92.47
2017-10-03T08:46:39.110Z,92.19
2017-10-03T08:47:39.707Z,90.36
2017-10-03T08:48:39.088Z,90.45
2017-10-03T08:49:39.085Z,89.88
2017-10-03T08:50:39.401Z,90.07
2017-10-03T08:51:39.395Z,90.94
2017-10-03T08:52:39.076Z,90.36
2017-10-03T08:53:39.074Z,89.69
2017-10-03T08:54:39.068Z,90.36
2017-10-03T08:55:39.066Z,91.32
2017-10-03T08:56:39.064Z,91.03
2017-10-03T08:57:39.060Z,89.64
2017-10-03T08:58:39.378Z,88.67
2017-10-03T08:59:39.442Z,89.44
2017-10-03T09:00:39.053Z,90.59
2017-10-03T09:01:39.052Z,88.77
2017-10-03T09:02:39.049Z,88.57
2017-10-03T09:03:39.364Z,89.92
2017-10-03T09:04:39.361Z,90.41
2017-10-03T09:05:39.039Z,89.92
2017-10-03T09:06:39.357Z,89.64
2017-10-03T09:07:39.037Z,90.21
2017-10-03T09:08:39.035Z,90.02
2017-10-03T09:09:39.031Z,89.97
2017-10-03T09:10:39.349Z,88.91
2017-10-03T09:11:39.347Z,88.04
2017-10-03T09:12:39.343Z,87.95
2017-10-03T09:13:39.337Z,87.85
2017-10-03T09:14:39.342Z,87.71
2017-10-03T09:15:39.336Z,88.1
2017-10-03T09:16:39.334Z,87.33
2017-10-03T09:17:39.331Z,86.75
2017-10-03T09:18:39.330Z,87.13
2017-10-03T09:19:39.332Z,88.67
2017-10-03T09:20:39.323Z,89.64
2017-10-03T09:21:39.322Z,89.58
2017-10-03T09:22:39.322Z,87.27
2017-10-03T09:23:39.317Z,86.56
2017-10-03T09:24:39.317Z,87.33
2017-10-03T09:25:38.995Z,88.96
2017-10-03T09:26:38.993Z,89.54
2017-10-03T09:27:39.309Z,89.06
2017-10-03T09:28:39.313Z,88.39
2017-10-03T09:29:39.304Z,89.92
2017-10-03T09:30:39.302Z,89.54
2017-10-03T09:31:39.299Z,89.25
2017-10-03T09:32:39.298Z,87.71
2017-10-03T09:33:39.295Z,88.29
2017-10-03T09:34:38.973Z,89.06
2017-10-03T09:35:39.290Z,89.73
2017-10-03T09:36:38.970Z,90.02
2017-10-03T09:37:38.970Z,89.54
2017-10-03T09:38:39.283Z,90.36
2017-10-03T09:39:39.281Z,89.88
2017-10-03T09:40:39.280Z,89.78
2017-10-03T09:41:39.275Z,90.36
2017-10-03T09:42:38.953Z,91.32
2017-10-03T09:43:39.272Z,90.69
2017-10-03T09:44:39.266Z,90.21
2017-10-03T09:45:39.261Z,89.78
2017-10-03T09:46:39.262Z,90.12
2017-10-03T09:47:39.258Z,90.41
2017-10-03T09:48:39.261Z,90.41
2017-10-03T09:49:39.260Z,90.12
2017-10-03T09:50:39.249Z,89.83
2017-10-03T09:51:39.246Z,87.9
2017-10-03T09:52:39.245Z,88.77
2017-10-03T09:53:39.239Z,90.41
2017-10-03T09:54:39.239Z,90.41
2017-10-03T09:55:39.237Z,90.69
2017-10-03T09:56:39.233Z,91.17
2017-10-03T09:57:39.232Z,90.31
2017-10-03T09:58:39.228Z,90.5
2017-10-03T09:59:39.226Z,90.12
2017-10-03T10:00:39.220Z,88.87
2017-10-03T10:01:39.217Z,88.96
2017-10-03T10:02:39.219Z,89.54
2017-10-03T10:03:39.220Z,89.06
2017-10-03T10:04:39.211Z,88.39
2017-10-03T10:05:39.213Z,88.73
2017-10-03T10:06:39.205Z,88.48
2017-10-03T10:07:39.201Z,89.06
2017-10-03T10:08:38.881Z,87.33
2017-10-03T10:09:39.196Z,87.04
2017-10-03T10:10:38.878Z,88
2017-10-03T10:11:39.191Z,88.57
2017-10-03T10:12:39.190Z,88
2017-10-03T10:13:39.189Z,88.19
2017-10-03T10:14:39.185Z,86.36
2017-10-03T10:15:39.182Z,86.56
2017-10-03T10:16:39.178Z,87.62
2017-10-03T10:17:39.181Z,88.34
2017-10-03T10:18:39.174Z,88.63
2017-10-03T10:19:39.176Z,88.53
2017-10-03T10:20:39.169Z,89.11
2017-10-03T10:21:39.166Z,89.11
2017-10-03T10:22:39.163Z,89.5
2017-10-03T10:23:39.183Z,89.4
2017-10-03T10:24:39.159Z,88.73
2017-10-03T10:25:39.161Z,88.63
2017-10-03T10:26:39.157Z,89.4
2017-10-03T10:27:39.154Z,89.11
2017-10-03T10:28:39.155Z,89.4
2017-10-03T10:29:38.826Z,88.48
2017-10-03T10:30:38.823Z,88.67
2017-10-03T10:31:38.822Z,88.57
2017-10-03T10:32:38.819Z,86.94
2017-10-03T10:33:39.144Z,86.75
2017-10-03T10:34:39.133Z,86.75
2017-10-03T10:35:39.132Z,86.08
2017-10-03T10:36:39.126Z,86.27
2017-10-03T10:37:39.127Z,86.41
2017-10-03T10:38:38.804Z,83.04
2017-10-03T10:39:39.122Z,82.75
2017-10-03T10:40:39.117Z,83.66
2017-10-03T10:41:39.114Z,82.6
2017-10-03T10:42:39.115Z,81.68
2017-10-03T10:43:39.110Z,80.81
2017-10-03T10:44:39.110Z,81.2
2017-10-03T10:45:39.109Z,81.48
2017-10-03T10:46:39.106Z,81.14
2017-10-03T10:47:39.107Z,80.85
2017-10-03T10:48:39.103Z,80.85
2017-10-03T10:49:38.781Z,80.94
2017-10-03T10:50:39.104Z,80.18
2017-10-03T10:51:39.108Z,79.69
2017-10-03T10:52:39.099Z,79.98
2017-10-03T10:53:39.099Z,79.5
2017-10-03T10:54:39.100Z,79.69
2017-10-03T10:55:39.098Z,79.89
2017-10-03T10:56:39.094Z,79.6
2017-10-03T10:57:39.101Z,78.54
2017-10-03T10:58:39.094Z,79.41
2017-10-03T10:59:39.092Z,79.41
2017-10-03T11:00:39.092Z,80.18
2017-10-03T11:01:39.087Z,80.18
2017-10-03T11:02:39.088Z,79.6
2017-10-03T11:03:39.088Z,79.46
2017-10-03T11:04:39.086Z,79.5
2017-10-03T11:05:39.102Z,79.36
2017-10-03T11:06:38.765Z,79.46
2017-10-03T11:07:39.083Z,77.73
2017-10-03T11:08:39.079Z,78.5
2017-10-03T11:09:39.077Z,79.17
2017-10-03T11:10:39.080Z,79.43
2017-10-03T11:11:39.077Z,80.29
2017-10-03T11:12:38.755Z,80.58
2017-10-03T11:13:39.076Z,80.83
2017-10-03T11:14:39.072Z,80.92
2017-10-03T11:15:39.070Z,82.17
2017-10-03T11:16:39.067Z,82.71
2017-10-03T11:17:39.064Z,82.71
2017-10-03T11:18:39.065Z,82.9
2017-10-03T11:19:39.059Z,82.23
2017-10-03T11:20:38.740Z,83
2017-10-03T11:21:39.060Z,83.09
2017-10-03T11:22:39.052Z,83.19
2017-10-03T11:23:39.051Z,83.19
2017-10-03T11:24:38.730Z,83.48
2017-10-03T11:25:38.725Z,83.58
2017-10-03T11:26:38.729Z,83.73
2017-10-03T11:27:39.043Z,83.83
2017-10-03T11:28:39.044Z,84.21
2017-10-03T11:29:39.035Z,84.88
2017-10-03T11:30:38.715Z,85.27
2017-10-03T11:31:39.032Z,85.46
2017-10-03T11:32:39.027Z,85.27
2017-10-03T11:33:39.024Z,84.98
2017-10-03T11:34:39.025Z,85.36
2017-10-03T11:35:39.018Z,84.69
2017-10-03T11:36:38.699Z,84.01
2017-10-03T11:37:39.011Z,83.83
2017-10-03T11:38:39.011Z,83.83
2017-10-03T11:39:39.008Z,82.76
2017-10-03T11:40:39.007Z,82.23
2017-10-03T11:41:39.004Z,83.29
2017-10-03T11:42:38.998Z,82.52
2017-10-03T11:43:38.993Z,82.42
2017-10-03T11:44:38.673Z,82.42
2017-10-03T11:45:38.990Z,82.42
2017-10-03T11:46:38.988Z,83.91
2017-10-03T11:47:38.988Z,87.85
2017-10-03T11:48:38.986Z,89.97
2017-10-03T11:49:38.981Z,89.92
2017-10-03T11:50:38.974Z,89.35
2017-10-03T11:51:38.978Z,89.54
2017-10-03T11:52:38.972Z,91.85
2017-10-03T11:53:38.970Z,93.29
2017-10-03T11:54:38.966Z,92.91
2017-10-03T11:55:38.964Z,92.76
2017-10-03T11:56:38.962Z,92.38
2017-10-03T11:57:38.958Z,92.57
2017-10-03T11:58:38.957Z,93.19
2017-10-03T11:59:38.955Z,93.29
2017-10-03T12:00:38.951Z,92.43
2017-10-03T12:01:38.950Z,92.62
2017-10-03T12:02:38.946Z,92.29
2017-10-03T12:03:38.941Z,92.29
2017-10-03T12:04:38.940Z,92.67
2017-10-03T12:05:38.934Z,92.72
2017-10-03T12:06:38.933Z,92.72
2017-10-03T12:07:38.928Z,92.43
2017-10-03T12:08:38.923Z,92.82
2017-10-03T12:09:38.922Z,93.15
2017-10-03T12:10:38.918Z,93.06
2017-10-03T12:11:38.595Z,93.15
2017-10-03T12:12:38.912Z,93.25
2017-10-03T12:13:38.587Z,93.15
2017-10-03T12:14:38.905Z,93.01
2017-10-03T12:15:38.897Z,93.59
2017-10-03T12:16:38.897Z,93.88
2017-10-03T12:17:38.893Z,93.49
2017-10-03T12:18:38.889Z,93.97
2017-10-03T12:19:38.888Z,93.01
2017-10-03T12:20:38.880Z,92.72
2017-10-03T12:21:38.557Z,93.21
2017-10-03T12:22:38.873Z,93.01
2017-10-03T12:23:38.878Z,93.11
2017-10-03T12:24:38.863Z,92.72
2017-10-03T12:25:38.862Z,93.01
2017-10-03T12:26:38.853Z,93.01
2017-10-03T12:27:38.557Z,93.11
2017-10-03T12:28:38.845Z,93.49
2017-10-03T12:29:38.839Z,93.49
2017-10-03T12:30:38.836Z,94.02
2017-10-03T12:31:38.833Z,94.02
2017-10-03T12:32:38.830Z,93.49
2017-10-03T12:33:38.827Z,93.49
2017-10-03T12:34:38.500Z,93.4
2017-10-03T12:35:38.836Z,92.82
2017-10-03T12:36:38.812Z,92.63
2017-10-03T12:37:38.805Z,93.11
2017-10-03T12:38:38.804Z,93.35
2017-10-03T12:39:38.804Z,92.72
2017-10-03T12:40:38.474Z,93.11
2017-10-03T12:41:38.469Z,92.54
2017-10-03T12:42:38.782Z,92.54
2017-10-03T12:43:38.460Z,91.57
2017-10-03T12:44:38.776Z,91.96
2017-10-03T12:45:38.772Z,91.67
2017-10-03T12:46:38.768Z,90.9
2017-10-03T12:47:38.761Z,91.48
2017-10-03T12:48:38.758Z,91.48
2017-10-03T12:49:38.756Z,91.19
2017-10-03T12:50:38.751Z,90.23
2017-10-03T12:51:38.996Z,90.61
2017-10-03T12:52:38.418Z,89.56
2017-10-03T12:53:38.736Z,89.94
2017-10-03T12:54:38.730Z,89.56
2017-10-03T12:55:38.728Z,89.56